sensor_id;sensor_type;location;lat;lon;timestamp;P1;durP1;ratioP1;P2;durP2;ratioP2
75892;SDS011;64572;50.950;3.676;2022-12-10T00:01:35;100.53;;;38.95;;
75892;SDS011;64572;50.950;3.676;2022-12-10T00:04:01;98.90;;;37.10;;
75892;SDS011;64572;50.950;3.676;2022-12-10T00:06:28;97.53;;;36.95;;
75892;SDS011;64572;50.950;3.676;2022-12-10T00:08:56;97.20;;;38.42;;
75892;SDS011;64572;50.950;3.676;2022-12-10T00:11:22;90.28;;;35.78;;
75892;SDS011;64572;50.950;3.676;2022-12-10T00:13:49;91.07;;;36.03;;
75892;SDS011;64572;50.950;3.676;2022-12-10T00:16:16;107.22;;;39.35;;
75892;SDS011;64572;50.950;3.676;2022-12-10T00:18:46;103.55;;;35.88;;
75892;SDS011;64572;50.950;3.676;2022-12-10T00:21:13;101.68;;;38.85;;
75892;SDS011;64572;50.950;3.676;2022-12-10T00:23:42;95.50;;;38.05;;
75892;SDS011;64572;50.950;3.676;2022-12-10T00:28:41;97.53;;;36.22;;
75892;SDS011;64572;50.950;3.676;2022-12-10T00:31:18;102.55;;;37.40;;
75892;SDS011;64572;50.950;3.676;2022-12-10T00:33:46;86.90;;;34.90;;
75892;SDS011;64572;50.950;3.676;2022-12-10T00:36:14;84.07;;;33.88;;
75892;SDS011;64572;50.950;3.676;2022-12-10T00:38:45;85.10;;;34.20;;
75892;SDS011;64572;50.950;3.676;2022-12-10T00:41:11;104.57;;;39.92;;
75892;SDS011;64572;50.950;3.676;2022-12-10T00:43:37;99.95;;;35.53;;
75892;SDS011;64572;50.950;3.676;2022-12-10T00:46:04;104.50;;;38.67;;
75892;SDS011;64572;50.950;3.676;2022-12-10T00:48:30;95.88;;;37.55;;
75892;SDS011;64572;50.950;3.676;2022-12-10T00:51:00;103.95;;;39.05;;
75892;SDS011;64572;50.950;3.676;2022-12-10T00:53:29;95.50;;;37.50;;
75892;SDS011;64572;50.950;3.676;2022-12-10T00:55:56;97.30;;;38.30;;
75892;SDS011;64572;50.950;3.676;2022-12-10T00:58:23;102.40;;;40.00;;
75892;SDS011;64572;50.950;3.676;2022-12-10T01:00:51;97.38;;;36.00;;
75892;SDS011;64572;50.950;3.676;2022-12-10T01:03:17;97.68;;;38.90;;
75892;SDS011;64572;50.950;3.676;2022-12-10T01:05:43;101.93;;;39.60;;
75892;SDS011;64572;50.950;3.676;2022-12-10T01:08:08;100.22;;;36.35;;
75892;SDS011;64572;50.950;3.676;2022-12-10T01:10:34;94.15;;;35.50;;
75892;SDS011;64572;50.950;3.676;2022-12-10T01:13:00;93.25;;;36.75;;
75892;SDS011;64572;50.950;3.676;2022-12-10T01:15:28;97.18;;;35.88;;
75892;SDS011;64572;50.950;3.676;2022-12-10T01:17:54;101.30;;;36.85;;
75892;SDS011;64572;50.950;3.676;2022-12-10T01:20:20;98.20;;;36.28;;
75892;SDS011;64572;50.950;3.676;2022-12-10T01:22:45;96.90;;;35.85;;
75892;SDS011;64572;50.950;3.676;2022-12-10T01:25:11;111.82;;;40.75;;
75892;SDS011;64572;50.950;3.676;2022-12-10T01:27:37;109.82;;;40.55;;
75892;SDS011;64572;50.950;3.676;2022-12-10T01:30:03;114.70;;;38.35;;
75892;SDS011;64572;50.950;3.676;2022-12-10T01:32:29;121.15;;;40.75;;
75892;SDS011;64572;50.950;3.676;2022-12-10T01:34:54;106.95;;;38.78;;
75892;SDS011;64572;50.950;3.676;2022-12-10T01:37:20;121.10;;;40.05;;
75892;SDS011;64572;50.950;3.676;2022-12-10T01:39:46;119.95;;;40.17;;
75892;SDS011;64572;50.950;3.676;2022-12-10T01:42:12;126.38;;;41.97;;
75892;SDS011;64572;50.950;3.676;2022-12-10T01:47:07;128.02;;;39.30;;
75892;SDS011;64572;50.950;3.676;2022-12-10T01:49:35;133.20;;;40.17;;
75892;SDS011;64572;50.950;3.676;2022-12-10T01:52:04;147.35;;;41.65;;
75892;SDS011;64572;50.950;3.676;2022-12-10T01:54:35;179.77;;;31.60;;
75892;SDS011;64572;50.950;3.676;2022-12-10T01:57:04;267.33;;;44.65;;
75892;SDS011;64572;50.950;3.676;2022-12-10T01:59:33;123.07;;;19.73;;
75892;SDS011;64572;50.950;3.676;2022-12-10T02:09:55;206.32;;;34.38;;
75892;SDS011;64572;50.950;3.676;2022-12-10T02:12:34;171.77;;;36.53;;
75892;SDS011;64572;50.950;3.676;2022-12-10T02:15:04;226.68;;;40.13;;
75892;SDS011;64572;50.950;3.676;2022-12-10T02:17:40;203.88;;;40.13;;
75892;SDS011;64572;50.950;3.676;2022-12-10T02:23:12;203.55;;;38.70;;
75892;SDS011;64572;50.950;3.676;2022-12-10T02:28:44;111.88;;;27.33;;
75892;SDS011;64572;50.950;3.676;2022-12-10T02:31:16;93.63;;;23.60;;
75892;SDS011;64572;50.950;3.676;2022-12-10T02:33:46;65.03;;;18.77;;
75892;SDS011;64572;50.950;3.676;2022-12-10T02:36:19;145.13;;;36.10;;
75892;SDS011;64572;50.950;3.676;2022-12-10T02:38:47;209.77;;;37.17;;
75892;SDS011;64572;50.950;3.676;2022-12-10T02:41:18;172.32;;;40.47;;
75892;SDS011;64572;50.950;3.676;2022-12-10T02:43:49;210.27;;;41.88;;
75892;SDS011;64572;50.950;3.676;2022-12-10T02:46:18;180.77;;;38.08;;
75892;SDS011;64572;50.950;3.676;2022-12-10T02:48:46;219.52;;;40.20;;
75892;SDS011;64572;50.950;3.676;2022-12-10T02:51:13;215.63;;;41.85;;
75892;SDS011;64572;50.950;3.676;2022-12-10T02:53:43;230.60;;;40.47;;
75892;SDS011;64572;50.950;3.676;2022-12-10T03:04:43;251.02;;;42.72;;
75892;SDS011;64572;50.950;3.676;2022-12-10T03:07:22;218.25;;;40.17;;
75892;SDS011;64572;50.950;3.676;2022-12-10T03:10:06;281.38;;;44.20;;
75892;SDS011;64572;50.950;3.676;2022-12-10T03:12:58;207.27;;;40.13;;
75892;SDS011;64572;50.950;3.676;2022-12-10T03:15:26;217.15;;;41.67;;
75892;SDS011;64572;50.950;3.676;2022-12-10T03:17:54;222.43;;;39.97;;
75892;SDS011;64572;50.950;3.676;2022-12-10T03:20:22;226.40;;;44.00;;
75892;SDS011;64572;50.950;3.676;2022-12-10T03:22:50;199.05;;;41.95;;
75892;SDS011;64572;50.950;3.676;2022-12-10T03:25:17;212.20;;;39.25;;
75892;SDS011;64572;50.950;3.676;2022-12-10T03:27:47;195.63;;;38.35;;
75892;SDS011;64572;50.950;3.676;2022-12-10T03:30:16;192.50;;;36.92;;
75892;SDS011;64572;50.950;3.676;2022-12-10T03:32:42;196.75;;;39.75;;
75892;SDS011;64572;50.950;3.676;2022-12-10T03:35:09;180.55;;;38.25;;
75892;SDS011;64572;50.950;3.676;2022-12-10T03:37:36;184.73;;;38.60;;
75892;SDS011;64572;50.950;3.676;2022-12-10T03:40:02;190.50;;;41.10;;
75892;SDS011;64572;50.950;3.676;2022-12-10T03:42:29;214.35;;;41.58;;
75892;SDS011;64572;50.950;3.676;2022-12-10T03:44:55;186.70;;;39.33;;
75892;SDS011;64572;50.950;3.676;2022-12-10T03:47:21;167.50;;;39.38;;
75892;SDS011;64572;50.950;3.676;2022-12-10T03:49:48;213.07;;;39.75;;
75892;SDS011;64572;50.950;3.676;2022-12-10T03:52:14;194.02;;;39.78;;
75892;SDS011;64572;50.950;3.676;2022-12-10T03:54:39;206.38;;;41.90;;
75892;SDS011;64572;50.950;3.676;2022-12-10T03:57:05;211.93;;;41.17;;
75892;SDS011;64572;50.950;3.676;2022-12-10T03:59:31;194.77;;;38.72;;
75892;SDS011;64572;50.950;3.676;2022-12-10T04:01:57;171.80;;;37.72;;
75892;SDS011;64572;50.950;3.676;2022-12-10T04:04:23;184.40;;;35.17;;
75892;SDS011;64572;50.950;3.676;2022-12-10T04:06:52;246.00;;;41.03;;
75892;SDS011;64572;50.950;3.676;2022-12-10T04:09:17;171.30;;;41.00;;
75892;SDS011;64572;50.950;3.676;2022-12-10T04:11:43;193.35;;;40.08;;
75892;SDS011;64572;50.950;3.676;2022-12-10T04:14:09;227.93;;;41.20;;
75892;SDS011;64572;50.950;3.676;2022-12-10T04:16:55;187.18;;;37.40;;
75892;SDS011;64572;50.950;3.676;2022-12-10T04:19:21;270.42;;;42.28;;
75892;SDS011;64572;50.950;3.676;2022-12-10T04:21:47;223.52;;;40.35;;
75892;SDS011;64572;50.950;3.676;2022-12-10T04:24:33;281.23;;;42.10;;
75892;SDS011;64572;50.950;3.676;2022-12-10T04:27:28;204.60;;;39.97;;
75892;SDS011;64572;50.950;3.676;2022-12-10T04:29:56;215.75;;;42.78;;
75892;SDS011;64572;50.950;3.676;2022-12-10T04:32:23;193.48;;;40.22;;
75892;SDS011;64572;50.950;3.676;2022-12-10T04:34:54;266.50;;;42.42;;
75892;SDS011;64572;50.950;3.676;2022-12-10T04:37:20;206.48;;;40.75;;
75892;SDS011;64572;50.950;3.676;2022-12-10T04:39:46;187.63;;;38.85;;
75892;SDS011;64572;50.950;3.676;2022-12-10T04:42:12;194.02;;;38.33;;
75892;SDS011;64572;50.950;3.676;2022-12-10T04:44:38;189.23;;;37.13;;
75892;SDS011;64572;50.950;3.676;2022-12-10T04:47:05;186.32;;;33.60;;
75892;SDS011;64572;50.950;3.676;2022-12-10T04:51:57;202.45;;;36.50;;
75892;SDS011;64572;50.950;3.676;2022-12-10T04:54:24;180.10;;;36.58;;
75892;SDS011;64572;50.950;3.676;2022-12-10T04:56:50;215.85;;;37.13;;
75892;SDS011;64572;50.950;3.676;2022-12-10T04:59:16;196.82;;;36.60;;
75892;SDS011;64572;50.950;3.676;2022-12-10T05:01:42;191.93;;;33.42;;
75892;SDS011;64572;50.950;3.676;2022-12-10T05:04:10;181.07;;;37.05;;
75892;SDS011;64572;50.950;3.676;2022-12-10T05:06:38;213.68;;;38.78;;
75892;SDS011;64572;50.950;3.676;2022-12-10T05:09:05;230.52;;;37.80;;
75892;SDS011;64572;50.950;3.676;2022-12-10T05:11:31;259.35;;;38.08;;
75892;SDS011;64572;50.950;3.676;2022-12-10T05:13:57;254.70;;;38.95;;
75892;SDS011;64572;50.950;3.676;2022-12-10T05:16:24;232.05;;;35.83;;
75892;SDS011;64572;50.950;3.676;2022-12-10T05:18:53;210.60;;;35.38;;
75892;SDS011;64572;50.950;3.676;2022-12-10T05:21:20;260.58;;;36.78;;
75892;SDS011;64572;50.950;3.676;2022-12-10T05:23:47;230.52;;;37.28;;
75892;SDS011;64572;50.950;3.676;2022-12-10T05:31:12;210.77;;;33.55;;
75892;SDS011;64572;50.950;3.676;2022-12-10T05:33:49;284.02;;;36.75;;
75892;SDS011;64572;50.950;3.676;2022-12-10T05:36:16;197.10;;;33.67;;
75892;SDS011;64572;50.950;3.676;2022-12-10T05:41:17;139.30;;;31.13;;
75892;SDS011;64572;50.950;3.676;2022-12-10T05:43:44;135.35;;;29.15;;
75892;SDS011;64572;50.950;3.676;2022-12-10T05:46:15;179.15;;;33.88;;
75892;SDS011;64572;50.950;3.676;2022-12-10T05:48:44;205.35;;;34.40;;
75892;SDS011;64572;50.950;3.676;2022-12-10T05:51:11;194.60;;;33.40;;
75892;SDS011;64572;50.950;3.676;2022-12-10T05:53:39;194.07;;;34.50;;
75892;SDS011;64572;50.950;3.676;2022-12-10T05:56:06;200.02;;;36.47;;
75892;SDS011;64572;50.950;3.676;2022-12-10T05:58:37;173.30;;;31.23;;
75892;SDS011;64572;50.950;3.676;2022-12-10T06:01:05;156.38;;;29.40;;
75892;SDS011;64572;50.950;3.676;2022-12-10T06:03:33;187.98;;;32.30;;
75892;SDS011;64572;50.950;3.676;2022-12-10T06:05:58;190.30;;;34.05;;
75892;SDS011;64572;50.950;3.676;2022-12-10T06:08:24;222.52;;;37.13;;
75892;SDS011;64572;50.950;3.676;2022-12-10T06:10:49;251.00;;;39.38;;
75892;SDS011;64572;50.950;3.676;2022-12-10T06:13:15;266.67;;;39.67;;
75892;SDS011;64572;50.950;3.676;2022-12-10T06:18:09;237.23;;;39.70;;
75892;SDS011;64572;50.950;3.676;2022-12-10T06:20:37;221.10;;;38.30;;
75892;SDS011;64572;50.950;3.676;2022-12-10T06:23:03;124.25;;;27.85;;
75892;SDS011;64572;50.950;3.676;2022-12-10T06:25:29;272.77;;;36.03;;
75892;SDS011;64572;50.950;3.676;2022-12-10T06:27:55;206.98;;;35.00;;
75892;SDS011;64572;50.950;3.676;2022-12-10T06:30:21;166.60;;;29.33;;
75892;SDS011;64572;50.950;3.676;2022-12-10T06:32:46;236.93;;;37.00;;
75892;SDS011;64572;50.950;3.676;2022-12-10T06:35:12;205.38;;;32.22;;
75892;SDS011;64572;50.950;3.676;2022-12-10T06:37:37;193.85;;;33.72;;
75892;SDS011;64572;50.950;3.676;2022-12-10T06:40:03;244.05;;;40.90;;
75892;SDS011;64572;50.950;3.676;2022-12-10T06:42:30;306.25;;;40.63;;
75892;SDS011;64572;50.950;3.676;2022-12-10T06:44:56;211.70;;;34.42;;
75892;SDS011;64572;50.950;3.676;2022-12-10T06:47:21;226.98;;;35.95;;
75892;SDS011;64572;50.950;3.676;2022-12-10T06:49:47;236.23;;;38.30;;
75892;SDS011;64572;50.950;3.676;2022-12-10T06:52:13;265.42;;;39.97;;
75892;SDS011;64572;50.950;3.676;2022-12-10T06:54:39;161.35;;;33.83;;
75892;SDS011;64572;50.950;3.676;2022-12-10T06:57:04;204.75;;;38.03;;
75892;SDS011;64572;50.950;3.676;2022-12-10T06:59:30;120.75;;;24.30;;
75892;SDS011;64572;50.950;3.676;2022-12-10T07:01:56;160.95;;;31.85;;
75892;SDS011;64572;50.950;3.676;2022-12-10T07:04:22;185.45;;;35.13;;
75892;SDS011;64572;50.950;3.676;2022-12-10T07:06:47;254.23;;;43.47;;
75892;SDS011;64572;50.950;3.676;2022-12-10T07:09:13;288.13;;;43.15;;
75892;SDS011;64572;50.950;3.676;2022-12-10T07:11:39;263.20;;;40.88;;
75892;SDS011;64572;50.950;3.676;2022-12-10T07:14:04;271.73;;;40.72;;
75892;SDS011;64572;50.950;3.676;2022-12-10T07:16:31;226.75;;;39.47;;
75892;SDS011;64572;50.950;3.676;2022-12-10T07:18:57;262.00;;;42.40;;
75892;SDS011;64572;50.950;3.676;2022-12-10T07:23:55;290.33;;;42.50;;
75892;SDS011;64572;50.950;3.676;2022-12-10T07:26:30;273.33;;;42.55;;
75892;SDS011;64572;50.950;3.676;2022-12-10T07:28:58;220.35;;;39.70;;
75892;SDS011;64572;50.950;3.676;2022-12-10T07:31:24;192.32;;;35.90;;
75892;SDS011;64572;50.950;3.676;2022-12-10T07:33:50;214.07;;;41.20;;
75892;SDS011;64572;50.950;3.676;2022-12-10T07:36:18;191.07;;;40.60;;
75892;SDS011;64572;50.950;3.676;2022-12-10T07:38:45;252.75;;;38.70;;
75892;SDS011;64572;50.950;3.676;2022-12-10T07:41:12;235.90;;;40.25;;
75892;SDS011;64572;50.950;3.676;2022-12-10T07:43:39;239.48;;;41.25;;
75892;SDS011;64572;50.950;3.676;2022-12-10T07:46:07;222.27;;;40.95;;
75892;SDS011;64572;50.950;3.676;2022-12-10T07:48:38;95.57;;;24.80;;
75892;SDS011;64572;50.950;3.676;2022-12-10T07:51:06;183.93;;;36.85;;
75892;SDS011;64572;50.950;3.676;2022-12-10T07:53:32;231.80;;;38.30;;
75892;SDS011;64572;50.950;3.676;2022-12-10T07:55:58;238.75;;;35.88;;
75892;SDS011;64572;50.950;3.676;2022-12-10T07:58:24;218.60;;;37.40;;
75892;SDS011;64572;50.950;3.676;2022-12-10T08:00:50;243.95;;;37.47;;
75892;SDS011;64572;50.950;3.676;2022-12-10T08:03:15;167.75;;;36.25;;
75892;SDS011;64572;50.950;3.676;2022-12-10T08:05:41;138.75;;;27.00;;
75892;SDS011;64572;50.950;3.676;2022-12-10T08:08:07;204.13;;;36.05;;
75892;SDS011;64572;50.950;3.676;2022-12-10T08:10:33;175.35;;;35.75;;
75892;SDS011;64572;50.950;3.676;2022-12-10T08:13:00;201.48;;;38.83;;
75892;SDS011;64572;50.950;3.676;2022-12-10T08:15:25;190.07;;;35.42;;
75892;SDS011;64572;50.950;3.676;2022-12-10T08:17:53;174.83;;;32.33;;
75892;SDS011;64572;50.950;3.676;2022-12-10T08:20:20;172.32;;;37.20;;
75892;SDS011;64572;50.950;3.676;2022-12-10T08:22:46;215.38;;;37.70;;
75892;SDS011;64572;50.950;3.676;2022-12-10T08:25:11;138.85;;;27.85;;
75892;SDS011;64572;50.950;3.676;2022-12-10T08:27:37;147.20;;;29.40;;
75892;SDS011;64572;50.950;3.676;2022-12-10T08:30:03;144.90;;;28.25;;
75892;SDS011;64572;50.950;3.676;2022-12-10T08:32:31;191.07;;;35.10;;
75892;SDS011;64572;50.950;3.676;2022-12-10T08:34:57;143.93;;;29.20;;
75892;SDS011;64572;50.950;3.676;2022-12-10T08:37:22;160.48;;;35.55;;
75892;SDS011;64572;50.950;3.676;2022-12-10T08:39:48;127.30;;;30.88;;
75892;SDS011;64572;50.950;3.676;2022-12-10T08:42:14;123.47;;;30.80;;
75892;SDS011;64572;50.950;3.676;2022-12-10T08:44:40;124.88;;;30.85;;
75892;SDS011;64572;50.950;3.676;2022-12-10T08:47:06;114.40;;;32.03;;
75892;SDS011;64572;50.950;3.676;2022-12-10T08:49:31;139.43;;;34.13;;
75892;SDS011;64572;50.950;3.676;2022-12-10T08:51:58;125.28;;;32.00;;
75892;SDS011;64572;50.950;3.676;2022-12-10T08:54:23;130.15;;;31.73;;
75892;SDS011;64572;50.950;3.676;2022-12-10T08:56:49;121.47;;;32.10;;
75892;SDS011;64572;50.950;3.676;2022-12-10T08:59:15;116.40;;;27.95;;
75892;SDS011;64572;50.950;3.676;2022-12-10T09:01:40;130.65;;;32.67;;
75892;SDS011;64572;50.950;3.676;2022-12-10T09:04:06;137.93;;;29.70;;
75892;SDS011;64572;50.950;3.676;2022-12-10T09:06:32;129.68;;;31.38;;
75892;SDS011;64572;50.950;3.676;2022-12-10T09:08:58;140.77;;;32.50;;
75892;SDS011;64572;50.950;3.676;2022-12-10T09:11:28;120.90;;;32.00;;
75892;SDS011;64572;50.950;3.676;2022-12-10T09:13:58;118.22;;;30.17;;
75892;SDS011;64572;50.950;3.676;2022-12-10T09:16:28;132.18;;;32.40;;
75892;SDS011;64572;50.950;3.676;2022-12-10T09:18:59;107.05;;;29.65;;
75892;SDS011;64572;50.950;3.676;2022-12-10T09:21:25;88.65;;;24.85;;
75892;SDS011;64572;50.950;3.676;2022-12-10T09:23:51;111.38;;;37.67;;
75892;SDS011;64572;50.950;3.676;2022-12-10T09:26:17;147.15;;;51.97;;
75892;SDS011;64572;50.950;3.676;2022-12-10T09:28:44;118.05;;;35.80;;
75892;SDS011;64572;50.950;3.676;2022-12-10T09:31:11;121.60;;;35.10;;
75892;SDS011;64572;50.950;3.676;2022-12-10T09:33:38;154.10;;;51.33;;
75892;SDS011;64572;50.950;3.676;2022-12-10T09:36:05;136.98;;;31.77;;
75892;SDS011;64572;50.950;3.676;2022-12-10T09:38:35;115.10;;;28.70;;
75892;SDS011;64572;50.950;3.676;2022-12-10T09:44:01;102.07;;;29.75;;
75892;SDS011;64572;50.950;3.676;2022-12-10T09:52:11;111.82;;;28.92;;
75892;SDS011;64572;50.950;3.676;2022-12-10T09:57:10;96.82;;;27.52;;
75892;SDS011;64572;50.950;3.676;2022-12-10T09:59:48;96.88;;;27.58;;
75892;SDS011;64572;50.950;3.676;2022-12-10T10:02:23;93.32;;;28.70;;
75892;SDS011;64572;50.950;3.676;2022-12-10T10:05:06;100.10;;;32.58;;
75892;SDS011;64572;50.950;3.676;2022-12-10T10:07:38;94.43;;;32.05;;
75892;SDS011;64572;50.950;3.676;2022-12-10T10:10:23;109.35;;;31.13;;
75892;SDS011;64572;50.950;3.676;2022-12-10T10:12:52;98.97;;;31.17;;
75892;SDS011;64572;50.950;3.676;2022-12-10T10:15:24;105.18;;;29.70;;
75892;SDS011;64572;50.950;3.676;2022-12-10T10:17:55;94.03;;;28.52;;
75892;SDS011;64572;50.950;3.676;2022-12-10T10:20:24;105.28;;;28.95;;
75892;SDS011;64572;50.950;3.676;2022-12-10T10:22:50;108.20;;;32.53;;
75892;SDS011;64572;50.950;3.676;2022-12-10T10:25:17;143.65;;;46.63;;
75892;SDS011;64572;50.950;3.676;2022-12-10T10:27:44;119.22;;;34.13;;
75892;SDS011;64572;50.950;3.676;2022-12-10T10:30:13;113.80;;;35.13;;
75892;SDS011;64572;50.950;3.676;2022-12-10T10:35:09;88.85;;;25.88;;
75892;SDS011;64572;50.950;3.676;2022-12-10T10:38:35;76.13;;;26.25;;
75892;SDS011;64572;50.950;3.676;2022-12-10T10:40:46;75.32;;;21.98;;
75892;SDS011;64572;50.950;3.676;2022-12-10T10:43:18;83.82;;;28.60;;
75892;SDS011;64572;50.950;3.676;2022-12-10T10:45:51;102.03;;;39.50;;
75892;SDS011;64572;50.950;3.676;2022-12-10T10:48:18;75.38;;;26.02;;
75892;SDS011;64572;50.950;3.676;2022-12-10T10:51:47;102.50;;;38.17;;
75892;SDS011;64572;50.950;3.676;2022-12-10T10:53:49;100.55;;;37.55;;
75892;SDS011;64572;50.950;3.676;2022-12-10T10:56:21;97.13;;;26.70;;
75892;SDS011;64572;50.950;3.676;2022-12-10T10:58:55;100.60;;;29.67;;
75892;SDS011;64572;50.950;3.676;2022-12-10T11:01:45;100.35;;;29.45;;
75892;SDS011;64572;50.950;3.676;2022-12-10T11:06:54;75.82;;;25.88;;
75892;SDS011;64572;50.950;3.676;2022-12-10T11:09:24;65.93;;;22.27;;
75892;SDS011;64572;50.950;3.676;2022-12-10T11:12:00;57.83;;;19.13;;
75892;SDS011;64572;50.950;3.676;2022-12-10T11:14:32;71.85;;;22.83;;
75892;SDS011;64572;50.950;3.676;2022-12-10T11:19:35;72.90;;;24.23;;
75892;SDS011;64572;50.950;3.676;2022-12-10T11:22:19;64.32;;;22.63;;
75892;SDS011;64572;50.950;3.676;2022-12-10T11:24:48;70.65;;;25.67;;
75892;SDS011;64572;50.950;3.676;2022-12-10T11:27:36;73.53;;;25.60;;
75892;SDS011;64572;50.950;3.676;2022-12-10T11:30:09;57.83;;;20.55;;
75892;SDS011;64572;50.950;3.676;2022-12-10T11:39:01;66.93;;;24.25;;
75892;SDS011;64572;50.950;3.676;2022-12-10T11:41:20;66.15;;;25.88;;
75892;SDS011;64572;50.950;3.676;2022-12-10T12:00:18;57.70;;;22.13;;
75892;SDS011;64572;50.950;3.676;2022-12-10T12:05:41;59.30;;;24.83;;
75892;SDS011;64572;50.950;3.676;2022-12-10T12:13:56;59.20;;;21.70;;
75892;SDS011;64572;50.950;3.676;2022-12-10T12:16:45;60.97;;;22.10;;
75892;SDS011;64572;50.950;3.676;2022-12-10T12:19:23;60.53;;;23.58;;
75892;SDS011;64572;50.950;3.676;2022-12-10T12:21:56;66.13;;;22.42;;
75892;SDS011;64572;50.950;3.676;2022-12-10T12:24:35;63.78;;;24.17;;
75892;SDS011;64572;50.950;3.676;2022-12-10T12:32:57;67.38;;;24.20;;
75892;SDS011;64572;50.950;3.676;2022-12-10T12:38:18;51.33;;;20.45;;
75892;SDS011;64572;50.950;3.676;2022-12-10T12:43:47;55.47;;;21.13;;
75892;SDS011;64572;50.950;3.676;2022-12-10T12:46:25;58.35;;;20.95;;
75892;SDS011;64572;50.950;3.676;2022-12-10T12:49:09;57.80;;;21.73;;
75892;SDS011;64572;50.950;3.676;2022-12-10T12:51:58;59.97;;;22.75;;
75892;SDS011;64572;50.950;3.676;2022-12-10T12:54:43;59.30;;;21.55;;
75892;SDS011;64572;50.950;3.676;2022-12-10T13:00:12;49.20;;;19.50;;
75892;SDS011;64572;50.950;3.676;2022-12-10T13:05:50;54.38;;;20.40;;
75892;SDS011;64572;50.950;3.676;2022-12-10T13:10:45;62.97;;;23.10;;
75892;SDS011;64572;50.950;3.676;2022-12-10T13:19:22;65.43;;;20.92;;
75892;SDS011;64572;50.950;3.676;2022-12-10T13:25:03;59.42;;;23.95;;
75892;SDS011;64572;50.950;3.676;2022-12-10T13:32:21;68.53;;;31.88;;
75892;SDS011;64572;50.950;3.676;2022-12-10T13:37:38;50.22;;;21.83;;
75892;SDS011;64572;50.950;3.676;2022-12-10T13:40:23;53.22;;;21.80;;
75892;SDS011;64572;50.950;3.676;2022-12-10T13:42:58;46.55;;;19.92;;
75892;SDS011;64572;50.950;3.676;2022-12-10T13:48:50;53.20;;;23.38;;
75892;SDS011;64572;50.950;3.676;2022-12-10T13:54:07;56.72;;;25.08;;
75892;SDS011;64572;50.950;3.676;2022-12-10T13:56:58;63.97;;;29.48;;
75892;SDS011;64572;50.950;3.676;2022-12-10T14:07:29;38.95;;;16.67;;
75892;SDS011;64572;50.950;3.676;2022-12-10T14:09:56;59.00;;;24.38;;
75892;SDS011;64572;50.950;3.676;2022-12-10T14:14:52;52.25;;;26.00;;
75892;SDS011;64572;50.950;3.676;2022-12-10T14:17:32;58.22;;;28.08;;
75892;SDS011;64572;50.950;3.676;2022-12-10T14:20:03;58.00;;;29.10;;
75892;SDS011;64572;50.950;3.676;2022-12-10T14:22:35;57.72;;;27.45;;
75892;SDS011;64572;50.950;3.676;2022-12-10T14:25:11;68.63;;;29.55;;
75892;SDS011;64572;50.950;3.676;2022-12-10T14:27:49;63.85;;;28.98;;
75892;SDS011;64572;50.950;3.676;2022-12-10T14:30:25;55.50;;;24.05;;
75892;SDS011;64572;50.950;3.676;2022-12-10T14:32:53;55.83;;;27.70;;
75892;SDS011;64572;50.950;3.676;2022-12-10T14:35:25;53.78;;;27.73;;
75892;SDS011;64572;50.950;3.676;2022-12-10T14:37:57;53.13;;;25.00;;
75892;SDS011;64572;50.950;3.676;2022-12-10T14:40:25;55.30;;;24.58;;
75892;SDS011;64572;50.950;3.676;2022-12-10T14:43:02;52.78;;;22.77;;
75892;SDS011;64572;50.950;3.676;2022-12-10T14:48:29;64.60;;;31.50;;
75892;SDS011;64572;50.950;3.676;2022-12-10T14:51:04;58.67;;;27.33;;
75892;SDS011;64572;50.950;3.676;2022-12-10T14:53:36;66.80;;;31.70;;
75892;SDS011;64572;50.950;3.676;2022-12-10T14:56:03;61.08;;;27.35;;
75892;SDS011;64572;50.950;3.676;2022-12-10T15:01:02;61.75;;;31.33;;
75892;SDS011;64572;50.950;3.676;2022-12-10T15:03:32;52.72;;;24.75;;
75892;SDS011;64572;50.950;3.676;2022-12-10T15:06:08;54.95;;;24.35;;
75892;SDS011;64572;50.950;3.676;2022-12-10T15:08:34;56.40;;;25.45;;
75892;SDS011;64572;50.950;3.676;2022-12-10T15:11:00;45.38;;;20.15;;
75892;SDS011;64572;50.950;3.676;2022-12-10T15:13:37;48.22;;;22.10;;
75892;SDS011;64572;50.950;3.676;2022-12-10T15:16:05;61.45;;;27.23;;
75892;SDS011;64572;50.950;3.676;2022-12-10T15:18:40;54.38;;;23.63;;
75892;SDS011;64572;50.950;3.676;2022-12-10T15:21:12;45.93;;;20.03;;
75892;SDS011;64572;50.950;3.676;2022-12-10T15:23:40;60.35;;;27.83;;
75892;SDS011;64572;50.950;3.676;2022-12-10T15:28:37;55.30;;;23.60;;
75892;SDS011;64572;50.950;3.676;2022-12-10T15:33:52;66.22;;;26.63;;
75892;SDS011;64572;50.950;3.676;2022-12-10T15:39:15;57.13;;;27.48;;
75892;SDS011;64572;50.950;3.676;2022-12-10T15:41:45;65.15;;;26.33;;
75892;SDS011;64572;50.950;3.676;2022-12-10T15:49:37;62.60;;;25.27;;
75892;SDS011;64572;50.950;3.676;2022-12-10T15:52:03;57.78;;;25.63;;
75892;SDS011;64572;50.950;3.676;2022-12-10T15:54:35;139.23;;;68.32;;
75892;SDS011;64572;50.950;3.676;2022-12-10T15:57:06;58.60;;;26.48;;
75892;SDS011;64572;50.950;3.676;2022-12-10T15:59:40;66.55;;;32.03;;
75892;SDS011;64572;50.950;3.676;2022-12-10T16:05:23;65.47;;;30.98;;
75892;SDS011;64572;50.950;3.676;2022-12-10T16:07:51;55.78;;;24.73;;
75892;SDS011;64572;50.950;3.676;2022-12-10T16:10:19;58.55;;;24.35;;
75892;SDS011;64572;50.950;3.676;2022-12-10T16:12:47;64.38;;;28.95;;
75892;SDS011;64572;50.950;3.676;2022-12-10T16:15:25;90.05;;;45.00;;
75892;SDS011;64572;50.950;3.676;2022-12-10T16:17:52;46.92;;;22.70;;
75892;SDS011;64572;50.950;3.676;2022-12-10T16:22:51;104.32;;;59.47;;
75892;SDS011;64572;50.950;3.676;2022-12-10T16:25:21;70.15;;;31.27;;
75892;SDS011;64572;50.950;3.676;2022-12-10T16:27:48;50.28;;;22.10;;
75892;SDS011;64572;50.950;3.676;2022-12-10T16:30:22;57.90;;;25.98;;
75892;SDS011;64572;50.950;3.676;2022-12-10T16:32:50;72.07;;;34.17;;
75892;SDS011;64572;50.950;3.676;2022-12-10T16:35:16;78.40;;;35.17;;
75892;SDS011;64572;50.950;3.676;2022-12-10T16:37:46;93.68;;;46.90;;
75892;SDS011;64572;50.950;3.676;2022-12-10T16:40:15;84.15;;;41.65;;
75892;SDS011;64572;50.950;3.676;2022-12-10T16:42:41;81.88;;;41.47;;
75892;SDS011;64572;50.950;3.676;2022-12-10T16:45:14;69.07;;;30.75;;
75892;SDS011;64572;50.950;3.676;2022-12-10T16:47:42;83.10;;;37.47;;
75892;SDS011;64572;50.950;3.676;2022-12-10T16:50:09;59.05;;;27.88;;
75892;SDS011;64572;50.950;3.676;2022-12-10T16:52:35;75.57;;;35.30;;
75892;SDS011;64572;50.950;3.676;2022-12-10T16:55:02;91.45;;;37.50;;
75892;SDS011;64572;50.950;3.676;2022-12-10T16:57:29;76.85;;;34.03;;
75892;SDS011;64572;50.950;3.676;2022-12-10T16:59:55;73.85;;;33.35;;
75892;SDS011;64572;50.950;3.676;2022-12-10T17:02:21;69.70;;;33.38;;
75892;SDS011;64572;50.950;3.676;2022-12-10T17:04:46;63.50;;;30.75;;
75892;SDS011;64572;50.950;3.676;2022-12-10T17:07:13;63.88;;;27.92;;
75892;SDS011;64572;50.950;3.676;2022-12-10T17:09:39;71.05;;;32.03;;
75892;SDS011;64572;50.950;3.676;2022-12-10T17:12:07;69.47;;;34.80;;
75892;SDS011;64572;50.950;3.676;2022-12-10T17:14:38;65.70;;;30.70;;
75892;SDS011;64572;50.950;3.676;2022-12-10T17:17:05;62.97;;;30.25;;